This is the latest recevied weather packets stored in our database for station/object OK1FET-16. If no packets are shown the sender has not sent any weather packets the latest 1 day(s).
| Time | Temp. | Humidity | Pressure | Rain* | Wind** | Luminosity | Snow |
|---|---|---|---|---|---|---|---|
| 1777968638 | 17.22° C | 57% | 1007.3 hPa | - | 1.34 m/s, 221° | - | - |
| 1777968368 | 16.67° C | 57% | 1007.4 hPa | - | 0.89 m/s, 242° | - | - |
| 1777968368 | 16.67° C | 57% | 1007.4 hPa | - | 0.89 m/s, 242° | - | - |
| 1777968368 | 16.67° C | 57% | 1007.4 hPa | - | 0.89 m/s, 242° | - | - |
| 1777967827 | 16.67° C | 57% | 1007.4 hPa | - | 0.89 m/s, 223° | - | - |
| 1777967827 | 16.67° C | 57% | 1007.4 hPa | - | 0.89 m/s, 223° | - | - |
| 1777967827 | 16.67° C | 57% | 1007.4 hPa | - | 0.89 m/s, 223° | - | - |
| 1777967557 | 16.67° C | 59% | 1007.4 hPa | - | 0.45 m/s, 281° | - | - |
| 1777967557 | 16.67° C | 59% | 1007.4 hPa | - | 0.45 m/s, 281° | - | - |
| 1777967287 | 16.67° C | 64% | 1007.5 hPa | - | 0.45 m/s, 242° | - | - |
| 1777967286 | 16.67° C | 64% | 1007.5 hPa | - | 0.45 m/s, 242° | - | - |
| 1777967286 | 16.67° C | 64% | 1007.5 hPa | - | 0.45 m/s, 242° | - | - |
| 1777967016 | 15.56° C | 67% | 1007.6 hPa | - | 1.79 m/s, 217° | - | - |
| 1777967016 | 15.56° C | 67% | 1007.6 hPa | - | 1.79 m/s, 217° | - | - |
| 1777967016 | 15.56° C | 67% | 1007.6 hPa | - | 1.79 m/s, 217° | - | - |
| 1777966476 | 16.11° C | 65% | 1007.6 hPa | - | 1.34 m/s, 220° | - | - |
| 1777966475 | 16.11° C | 65% | 1007.6 hPa | - | 1.34 m/s, 220° | - | - |
| 1777966475 | 16.11° C | 65% | 1007.6 hPa | - | 1.34 m/s, 220° | - | - |
| 1777966205 | 16.67° C | 79% | 1007.6 hPa | - | 2.24 m/s, 176° | - | - |
| 1777966205 | 16.67° C | 79% | 1007.6 hPa | - | 2.24 m/s, 176° | - | - |
| 1777966205 | 16.67° C | 79% | 1007.6 hPa | - | 2.24 m/s, 176° | - | - |
| 1777965935 | 16.67° C | 83% | 1007.7 hPa | - | 1.34 m/s, 173° | - | - |
| 1777965935 | 16.67° C | 83% | 1007.7 hPa | - | 1.34 m/s, 173° | - | - |
| 1777965935 | 16.67° C | 83% | 1007.7 hPa | - | 1.34 m/s, 173° | - | - |
| 1777965664 | 16.67° C | 75% | 1007.7 hPa | - | 1.34 m/s, 211° | - | - |
* Rain since midnight (hover to see other rain measurements)
** Current wind speed in m/s (hover to see current wind gust speed)